createdAt,value
2017-06-26T00:02:15.196Z,100420
2017-06-26T00:04:43.937Z,100435
2017-06-26T00:07:12.393Z,100424
2017-06-26T00:09:40.941Z,100423
2017-06-26T00:12:09.381Z,100419
2017-06-26T00:14:37.812Z,100428
2017-06-26T00:17:06.393Z,100428
2017-06-26T00:19:34.860Z,100425
2017-06-26T00:22:03.734Z,100423
2017-06-26T00:24:32.966Z,100414
2017-06-26T00:27:01.565Z,100403
2017-06-26T00:29:30.148Z,100416
2017-06-26T00:31:58.584Z,100411
2017-06-26T00:34:27.163Z,100407
2017-06-26T00:36:56.424Z,100401
2017-06-26T00:39:24.936Z,100401
2017-06-26T00:41:53.452Z,100401
2017-06-26T00:44:22.344Z,100395
2017-06-26T00:46:50.964Z,100394
2017-06-26T00:49:19.410Z,100385
2017-06-26T00:51:47.857Z,100392
2017-06-26T00:54:16.478Z,100379
2017-06-26T00:56:44.933Z,100391
2017-06-26T00:59:13.361Z,100387
2017-06-26T01:01:42.153Z,100391
2017-06-26T01:04:10.620Z,100377
2017-06-26T01:06:39.072Z,100378
2017-06-26T01:09:08.536Z,100373
2017-06-26T01:11:37.025Z,100386
2017-06-26T01:14:05.468Z,100402
2017-06-26T01:16:34.051Z,100398
2017-06-26T01:19:02.525Z,100398
2017-06-26T01:21:31.724Z,100402
2017-06-26T01:24:00.337Z,100399
2017-06-26T01:26:28.756Z,100400
2017-06-26T01:28:57.197Z,100401
2017-06-26T01:31:25.788Z,100415
2017-06-26T01:33:54.640Z,100404
2017-06-26T01:36:23.846Z,100398
2017-06-26T01:38:52.549Z,100403
2017-06-26T01:41:21.056Z,100410
2017-06-26T01:43:49.528Z,100400
2017-06-26T01:46:18.012Z,100407
2017-06-26T01:48:46.605Z,100410
2017-06-26T01:51:15.258Z,100405
2017-06-26T01:53:44.287Z,100395
2017-06-26T01:56:12.787Z,100375
2017-06-26T01:58:41.220Z,100389
2017-06-26T02:01:09.848Z,100393
2017-06-26T02:03:38.304Z,100395
2017-06-26T02:06:06.766Z,100391
2017-06-26T02:08:35.251Z,100392
2017-06-26T02:11:04.215Z,100391
2017-06-26T02:13:32.764Z,100395
2017-06-26T02:16:01.286Z,100401
2017-06-26T02:18:30.138Z,100403
2017-06-26T02:20:58.596Z,100401
2017-06-26T02:23:27.270Z,100384
2017-06-26T02:25:55.978Z,100391
2017-06-26T02:28:24.429Z,100397
2017-06-26T02:30:53.616Z,100394
2017-06-26T02:34:25.663Z,100384
2017-06-26T02:36:54.125Z,100386
2017-06-26T02:39:22.656Z,100397
2017-06-26T02:41:51.853Z,100388
2017-06-26T02:44:20.461Z,100389
2017-06-26T02:46:48.898Z,100381
2017-06-26T02:49:17.360Z,100383
2017-06-26T02:51:45.824Z,100391
2017-06-26T02:54:14.406Z,100394
2017-06-26T02:56:42.852Z,100397
2017-06-26T02:59:13.405Z,100395
2017-06-26T03:01:41.872Z,100389
2017-06-26T03:04:11.128Z,100387
2017-06-26T03:06:39.596Z,100390
2017-06-26T03:09:08.163Z,100379
2017-06-26T03:21:30.345Z,100390
2017-06-26T03:23:59.569Z,100409
2017-06-26T03:26:28.050Z,100414
2017-06-26T03:28:56.535Z,100414
2017-06-26T03:31:24.992Z,100406
2017-06-26T03:33:53.659Z,100406
2017-06-26T03:36:22.277Z,100404
2017-06-26T03:38:51.106Z,100413
2017-06-26T03:41:19.656Z,100414
2017-06-26T03:43:48.296Z,100415
2017-06-26T03:46:16.941Z,100415
2017-06-26T03:48:45.532Z,100413
2017-06-26T03:51:13.986Z,100410
2017-06-26T03:53:43.203Z,100416
2017-06-26T03:56:11.660Z,100410
2017-06-26T03:58:40.284Z,100418
2017-06-26T04:01:08.712Z,100413
2017-06-26T04:03:37.631Z,100418
2017-06-26T04:06:06.100Z,100415
2017-06-26T04:08:35.300Z,100420
2017-06-26T04:11:03.796Z,100414
2017-06-26T04:13:32.248Z,100424
2017-06-26T04:16:00.913Z,100433
2017-06-26T04:18:29.740Z,100427
2017-06-26T04:20:58.968Z,100435
2017-06-26T04:23:27.541Z,100434
2017-06-26T04:25:56.139Z,100435
2017-06-26T04:28:24.637Z,100435
2017-06-26T04:30:53.193Z,100437
2017-06-26T04:33:21.700Z,100434
2017-06-26T04:35:50.164Z,100436
2017-06-26T04:38:18.841Z,100445
2017-06-26T04:40:47.349Z,100445
2017-06-26T04:43:16.244Z,100450
2017-06-26T04:45:44.827Z,100449
2017-06-26T04:48:13.454Z,100449
2017-06-26T04:50:42.382Z,100449
2017-06-26T04:53:10.922Z,100451
2017-06-26T04:55:39.470Z,100461
2017-06-26T04:58:07.922Z,100468
2017-06-26T05:00:37.149Z,100474
2017-06-26T05:03:05.609Z,100477
2017-06-26T05:05:34.373Z,100477
2017-06-26T05:08:03.808Z,100478
2017-06-26T05:10:32.300Z,100482
2017-06-26T05:13:01.112Z,100488
2017-06-26T05:15:29.579Z,100491
2017-06-26T05:17:58.042Z,100487
2017-06-26T05:20:26.546Z,100507
2017-06-26T05:22:55.028Z,100507
2017-06-26T05:25:24.091Z,100497
2017-06-26T05:27:53.428Z,100503
2017-06-26T05:30:22.624Z,100485
2017-06-26T05:32:51.128Z,100506
2017-06-26T05:35:19.625Z,100511
2017-06-26T05:37:48.181Z,100520
2017-06-26T05:40:16.645Z,100512
2017-06-26T05:42:45.145Z,100515
2017-06-26T05:45:13.980Z,100510
2017-06-26T05:47:42.537Z,100522
2017-06-26T05:50:12.060Z,100519
2017-06-26T05:52:40.716Z,100516
2017-06-26T05:55:10.028Z,100515
2017-06-26T05:57:38.723Z,100507
2017-06-26T06:00:07.299Z,100518
2017-06-26T06:02:36.109Z,100513
2017-06-26T06:05:04.549Z,100520
2017-06-26T06:07:33.056Z,100519
2017-06-26T06:10:01.933Z,100516
2017-06-26T06:12:30.603Z,100518
2017-06-26T06:14:59.216Z,100522
2017-06-26T06:17:27.928Z,100520
2017-06-26T06:19:56.673Z,100529
2017-06-26T06:22:25.161Z,100544
2017-06-26T06:24:54.028Z,100529
2017-06-26T06:27:22.716Z,100543
2017-06-26T06:29:51.448Z,100547
2017-06-26T06:32:19.987Z,100541
2017-06-26T06:34:49.426Z,100548
2017-06-26T06:37:18.633Z,100539
2017-06-26T06:39:47.228Z,100548
2017-06-26T06:42:15.888Z,100557
2017-06-26T06:44:45.214Z,100550
2017-06-26T06:47:13.773Z,100555
2017-06-26T06:49:42.432Z,100561
2017-06-26T06:52:10.952Z,100562
2017-06-26T06:54:39.414Z,100560
2017-06-26T06:57:09.325Z,100565
2017-06-26T06:59:38.241Z,100573
2017-06-26T07:02:07.064Z,100572
2017-06-26T07:04:35.786Z,100567
2017-06-26T07:07:04.291Z,100568
2017-06-26T07:09:32.760Z,100577
2017-06-26T07:12:01.446Z,100575
2017-06-26T07:14:30.824Z,100555
2017-06-26T07:17:00.218Z,100582
2017-06-26T07:19:28.694Z,100592
2017-06-26T07:21:57.679Z,100579
2017-06-26T07:24:26.505Z,100591
2017-06-26T07:26:55.416Z,100583
2017-06-26T07:29:24.028Z,100606
2017-06-26T07:31:52.564Z,100597
2017-06-26T07:34:21.133Z,100594
2017-06-26T07:36:50.572Z,100593
2017-06-26T07:39:19.582Z,100590
2017-06-26T07:41:48.441Z,100583
2017-06-26T07:44:16.880Z,100591
2017-06-26T07:46:45.477Z,100595
2017-06-26T07:49:14.632Z,100590
2017-06-26T07:51:43.100Z,100608
2017-06-26T07:54:12.732Z,100604
2017-06-26T07:56:41.714Z,100595
2017-06-26T07:59:10.312Z,100595
2017-06-26T08:01:39.128Z,100596
2017-06-26T08:04:07.599Z,100598
2017-06-26T08:06:36.129Z,100603
2017-06-26T08:09:04.864Z,100595
2017-06-26T08:11:33.300Z,100605
2017-06-26T08:14:03.038Z,100603
2017-06-26T08:16:31.633Z,100612
2017-06-26T08:19:00.317Z,100606
2017-06-26T08:21:29.221Z,100603
2017-06-26T08:23:57.800Z,100608
2017-06-26T08:26:26.657Z,100604
2017-06-26T08:28:55.616Z,100610
2017-06-26T08:31:25.378Z,100621
2017-06-26T08:33:54.356Z,100617
2017-06-26T08:36:23.021Z,100614
2017-06-26T08:38:51.690Z,100619
2017-06-26T08:41:20.145Z,100621
2017-06-26T08:43:49.085Z,100626
2017-06-26T08:46:18.304Z,100633
2017-06-26T08:48:53.713Z,100639
2017-06-26T08:51:22.457Z,100630
2017-06-26T08:53:50.921Z,100633
2017-06-26T08:56:19.382Z,100637
2017-06-26T08:58:48.322Z,100643
2017-06-26T09:01:17.008Z,100649
2017-06-26T09:03:45.929Z,100641
2017-06-26T09:06:14.437Z,100644
2017-06-26T09:08:43.699Z,100638
2017-06-26T09:11:12.220Z,100632
2017-06-26T09:13:41.519Z,100631
2017-06-26T09:16:11.288Z,100647
2017-06-26T09:18:39.777Z,100640
2017-06-26T09:21:08.361Z,100649
2017-06-26T09:23:36.905Z,100658
2017-06-26T09:26:05.370Z,100644
2017-06-26T09:28:35.173Z,100651
2017-06-26T09:31:03.608Z,100649
2017-06-26T09:33:32.290Z,100652
2017-06-26T09:36:00.757Z,100654
2017-06-26T09:38:29.264Z,100655
2017-06-26T09:40:57.869Z,100650
2017-06-26T09:43:26.556Z,100649
2017-06-26T09:45:55.515Z,100655
2017-06-26T09:48:24.397Z,100662
2017-06-26T09:50:52.869Z,100657
2017-06-26T09:53:21.449Z,100662
2017-06-26T09:55:49.989Z,100659
2017-06-26T09:58:18.599Z,100662
2017-06-26T10:00:47.268Z,100658
2017-06-26T10:03:15.838Z,100678
2017-06-26T10:05:44.465Z,100669
2017-06-26T10:08:13.511Z,100671
2017-06-26T10:10:41.997Z,100682
2017-06-26T10:13:10.644Z,100659
2017-06-26T10:15:39.161Z,100693
2017-06-26T10:18:07.963Z,100689
2017-06-26T10:20:36.525Z,100695
2017-06-26T10:23:05.187Z,100695
2017-06-26T10:25:33.695Z,100703
2017-06-26T10:28:02.228Z,100697
2017-06-26T10:30:31.045Z,100690
2017-06-26T10:32:59.913Z,100696
2017-06-26T10:35:29.295Z,100709
2017-06-26T10:37:57.780Z,100700
2017-06-26T10:40:26.444Z,100699
2017-06-26T10:42:54.929Z,100704
2017-06-26T10:45:23.380Z,100699
2017-06-26T10:47:51.968Z,100710
2017-06-26T10:50:20.546Z,100710
2017-06-26T10:52:49.013Z,100719
2017-06-26T10:55:23.104Z,100730
2017-06-26T10:57:52.608Z,100724
2017-06-26T11:00:21.202Z,100683
2017-06-26T11:02:50.561Z,100720
2017-06-26T11:05:19.014Z,100724
2017-06-26T11:07:47.690Z,100705
2017-06-26T11:10:17.410Z,100708
2017-06-26T11:12:45.924Z,100715
2017-06-26T11:15:14.416Z,100722
2017-06-26T11:17:42.885Z,100716
2017-06-26T11:20:11.412Z,100719
2017-06-26T11:22:39.894Z,100725
2017-06-26T11:25:08.645Z,100706
2017-06-26T11:27:37.256Z,100732
2017-06-26T11:30:05.796Z,100733
2017-06-26T11:32:34.497Z,100731
2017-06-26T11:35:03.429Z,100735
2017-06-26T11:37:31.885Z,100735
2017-06-26T11:40:00.348Z,100735
2017-06-26T11:42:30.750Z,100739
2017-06-26T11:45:00.185Z,100745
2017-06-26T11:47:28.839Z,100746
2017-06-26T11:49:57.294Z,100747
2017-06-26T11:52:25.743Z,100750
2017-06-26T11:54:54.288Z,100752
2017-06-26T11:57:22.891Z,100749
2017-06-26T11:59:51.677Z,100763
2017-06-26T12:02:20.188Z,100755
2017-06-26T12:04:49.189Z,100760
2017-06-26T12:07:17.721Z,100769
2017-06-26T12:09:46.324Z,100776
2017-06-26T12:12:16.749Z,100683
2017-06-26T12:14:48.503Z,100762
2017-06-26T12:17:18.789Z,100762
2017-06-26T12:19:53.749Z,100751
2017-06-26T12:22:23.642Z,100748
2017-06-26T12:24:53.638Z,100762
2017-06-26T12:27:26.582Z,100759
2017-06-26T12:29:58.977Z,100770
2017-06-26T12:32:32.489Z,100773
2017-06-26T12:35:01.630Z,100777
2017-06-26T12:37:31.183Z,100773
2017-06-26T12:40:02.852Z,100769
2017-06-26T12:42:33.132Z,100778
2017-06-26T12:45:03.815Z,100769
2017-06-26T12:47:34.485Z,100789
2017-06-26T12:50:04.224Z,100784
2017-06-26T12:52:35.445Z,100776
2017-06-26T12:55:08.254Z,100772
2017-06-26T12:57:39.762Z,100781
2017-06-26T13:00:16.796Z,100798
2017-06-26T13:02:47.791Z,100793
2017-06-26T13:05:20.339Z,100789
2017-06-26T13:07:51.331Z,100801
2017-06-26T13:10:21.148Z,100791
2017-06-26T13:12:54.499Z,100797
2017-06-26T13:15:24.772Z,100802
2017-06-26T13:17:54.049Z,100812
2017-06-26T13:20:24.439Z,100791
2017-06-26T13:22:53.153Z,100804
2017-06-26T13:25:22.612Z,100813
2017-06-26T13:27:52.521Z,100822
2017-06-26T13:30:21.356Z,100813
2017-06-26T13:32:51.915Z,100819
2017-06-26T13:35:21.592Z,100825
2017-06-26T13:37:50.306Z,100824
2017-06-26T13:40:19.660Z,100828
2017-06-26T13:42:48.932Z,100824
2017-06-26T13:45:18.678Z,100824
2017-06-26T13:47:48.273Z,100822
2017-06-26T13:50:20.210Z,100830
2017-06-26T13:52:49.597Z,100827
2017-06-26T13:55:18.105Z,100829
2017-06-26T13:57:47.560Z,100818
2017-06-26T14:00:17.781Z,100826
2017-06-26T14:02:46.634Z,100830
2017-06-26T14:05:17.698Z,100828
2017-06-26T14:07:47.226Z,100826
2017-06-26T14:10:18.393Z,100831
2017-06-26T14:12:48.448Z,100829
2017-06-26T14:15:17.133Z,100824
2017-06-26T14:17:47.750Z,100818
2017-06-26T14:20:19.724Z,100838
2017-06-26T14:22:53.309Z,100836
2017-06-26T14:25:21.994Z,100818
2017-06-26T14:27:50.618Z,100832
2017-06-26T14:30:19.149Z,100837
2017-06-26T14:32:49.290Z,100836
2017-06-26T14:35:19.992Z,100825
2017-06-26T14:37:49.638Z,100825
2017-06-26T14:40:21.048Z,100844
2017-06-26T14:42:53.379Z,100837
2017-06-26T14:45:21.927Z,100844
2017-06-26T14:47:51.165Z,100835
2017-06-26T14:50:19.649Z,100838
2017-06-26T14:52:49.219Z,100839
2017-06-26T14:55:17.715Z,100837
2017-06-26T14:57:46.734Z,100845
2017-06-26T15:00:15.322Z,100855
2017-06-26T15:02:43.821Z,100845
2017-06-26T15:05:12.344Z,100860
2017-06-26T15:07:41.295Z,100857
2017-06-26T15:10:09.936Z,100845
2017-06-26T15:12:38.430Z,100847
2017-06-26T15:15:07.016Z,100849
2017-06-26T15:17:35.921Z,100848
2017-06-26T15:20:04.208Z,100862
2017-06-26T15:22:32.700Z,100845
2017-06-26T15:25:01.146Z,100856
2017-06-26T15:27:29.804Z,100862
2017-06-26T15:30:02.652Z,100855
2017-06-26T15:32:31.444Z,100866
2017-06-26T15:35:00.015Z,100871
2017-06-26T15:37:28.489Z,100860
2017-06-26T15:39:57.077Z,100866
2017-06-26T15:42:25.840Z,100869
2017-06-26T15:44:54.628Z,100874
2017-06-26T15:47:23.287Z,100867
2017-06-26T15:49:52.142Z,100864
2017-06-26T15:52:20.624Z,100852
2017-06-26T15:54:49.217Z,100874
2017-06-26T15:57:17.873Z,100869
2017-06-26T15:59:46.443Z,100863
2017-06-26T16:02:15.042Z,100851
2017-06-26T16:04:43.527Z,100867
2017-06-26T16:07:12.682Z,100858
2017-06-26T16:09:41.986Z,100858
2017-06-26T16:12:10.701Z,100855
2017-06-26T16:14:39.144Z,100860
2017-06-26T16:17:07.618Z,100861
2017-06-26T16:19:36.266Z,100863
2017-06-26T16:22:04.760Z,100869
2017-06-26T16:24:33.691Z,100872
2017-06-26T16:27:02.155Z,100867
2017-06-26T16:29:30.808Z,100872
2017-06-26T16:31:59.818Z,100866
2017-06-26T16:34:28.403Z,100867
2017-06-26T16:36:56.904Z,100860
2017-06-26T16:39:25.414Z,100868
2017-06-26T16:41:56.109Z,100866
2017-06-26T16:44:24.795Z,100864
2017-06-26T16:46:53.339Z,100873
2017-06-26T16:49:22.209Z,100886
2017-06-26T16:51:56.244Z,100877
2017-06-26T16:54:24.727Z,100878
2017-06-26T16:56:57.572Z,100885
2017-06-26T16:59:26.934Z,100894
2017-06-26T17:01:55.428Z,100885
2017-06-26T17:04:24.688Z,100882
2017-06-26T17:06:53.237Z,100886
2017-06-26T17:09:21.705Z,100891
2017-06-26T17:11:50.155Z,100892
2017-06-26T17:14:19.380Z,100893
2017-06-26T17:16:48.001Z,100891
2017-06-26T17:19:16.685Z,100893
2017-06-26T17:21:45.145Z,100898
2017-06-26T17:24:13.682Z,100894
2017-06-26T17:26:42.148Z,100886
2017-06-26T17:29:11.365Z,100896
2017-06-26T17:31:40.013Z,100896
2017-06-26T17:34:08.605Z,100889
2017-06-26T17:36:37.544Z,100894
2017-06-26T17:39:06.132Z,100891
2017-06-26T17:41:48.015Z,100892
2017-06-26T17:44:16.816Z,100898
2017-06-26T17:46:45.566Z,100900
2017-06-26T17:49:14.925Z,100898
2017-06-26T17:51:43.475Z,100884
2017-06-26T17:54:12.377Z,100895
2017-06-26T17:56:40.929Z,100901
2017-06-26T17:59:11.491Z,100895
2017-06-26T18:01:39.964Z,100895
2017-06-26T18:04:08.467Z,100896
2017-06-26T18:06:37.000Z,100893
2017-06-26T18:09:05.660Z,100887
2017-06-26T18:11:34.269Z,100893
2017-06-26T18:14:02.784Z,100895
2017-06-26T18:16:31.321Z,100882
2017-06-26T18:19:00.112Z,100863
2017-06-26T18:21:28.940Z,100884
2017-06-26T18:23:57.999Z,100893
2017-06-26T18:26:26.515Z,100898
2017-06-26T18:28:55.128Z,100889
2017-06-26T18:31:23.616Z,100885
2017-06-26T18:33:52.256Z,100884
2017-06-26T18:36:20.936Z,100882
2017-06-26T18:38:49.444Z,100890
2017-06-26T18:41:17.940Z,100889
2017-06-26T18:43:46.421Z,100893
2017-06-26T18:46:14.915Z,100883
2017-06-26T18:48:43.547Z,100882
2017-06-26T18:51:12.048Z,100883
2017-06-26T18:53:40.583Z,100882
2017-06-26T18:56:09.359Z,100892
2017-06-26T18:58:38.137Z,100889
2017-06-26T19:01:06.598Z,100881
2017-06-26T19:03:35.100Z,100872
2017-06-26T19:06:03.704Z,100882
2017-06-26T19:08:32.239Z,100879
2017-06-26T19:11:00.784Z,100862
2017-06-26T19:13:29.257Z,100878
2017-06-26T19:15:59.109Z,100867
2017-06-26T19:18:27.980Z,100870
2017-06-26T19:20:56.648Z,100872
2017-06-26T19:23:25.177Z,100865
2017-06-26T19:25:54.647Z,100869
2017-06-26T19:28:23.646Z,100862
2017-06-26T19:30:52.549Z,100868
2017-06-26T19:33:21.525Z,100869
2017-06-26T19:35:50.045Z,100858
2017-06-26T19:38:20.025Z,100866
2017-06-26T19:40:48.545Z,100864
2017-06-26T19:43:17.094Z,100875
2017-06-26T19:45:45.869Z,100872
2017-06-26T19:48:14.745Z,100876
2017-06-26T19:50:43.494Z,100859
2017-06-26T19:53:12.346Z,100864
2017-06-26T19:55:40.812Z,100865
2017-06-26T19:58:09.381Z,100866
2017-06-26T20:00:38.075Z,100863
2017-06-26T20:03:07.997Z,100866
2017-06-26T20:05:36.589Z,100865
2017-06-26T20:08:05.261Z,100873
2017-06-26T20:10:35.063Z,100865
2017-06-26T20:13:03.734Z,100860
2017-06-26T20:15:32.509Z,100863
2017-06-26T20:18:00.976Z,100865
2017-06-26T20:20:29.557Z,100861
2017-06-26T20:22:58.082Z,100862
2017-06-26T20:25:26.664Z,100867
2017-06-26T20:27:55.202Z,100876
2017-06-26T20:30:24.163Z,100879
2017-06-26T20:32:52.761Z,100870
2017-06-26T20:35:21.237Z,100866
2017-06-26T20:37:49.980Z,100865
2017-06-26T20:40:18.524Z,100875
2017-06-26T20:42:47.097Z,100872
2017-06-26T20:45:15.675Z,100872
2017-06-26T20:47:44.230Z,100872
2017-06-26T20:50:12.940Z,100856
2017-06-26T20:52:41.475Z,100875
2017-06-26T20:55:10.314Z,100878
2017-06-26T20:57:38.771Z,100879
2017-06-26T21:00:07.362Z,100883
2017-06-26T21:02:35.850Z,100893
2017-06-26T21:05:04.332Z,100892
2017-06-26T21:07:32.809Z,100892
2017-06-26T21:10:01.337Z,100898
2017-06-26T21:12:29.920Z,100898
2017-06-26T21:14:58.459Z,100901
2017-06-26T21:17:26.940Z,100899
2017-06-26T21:19:55.396Z,100907
2017-06-26T21:22:24.256Z,100907
2017-06-26T21:24:52.755Z,100905
2017-06-26T21:27:21.392Z,100908
2017-06-26T21:29:49.913Z,100902
2017-06-26T21:32:18.977Z,100924
2017-06-26T21:34:47.563Z,100914
2017-06-26T21:37:16.574Z,100920
2017-06-26T21:39:45.140Z,100926
2017-06-26T21:42:14.753Z,100912
2017-06-26T21:44:43.277Z,100928
2017-06-26T21:47:12.258Z,100928
2017-06-26T21:49:40.847Z,100938
2017-06-26T21:52:09.346Z,100932
2017-06-26T21:54:38.038Z,100938
2017-06-26T21:57:06.676Z,100943
2017-06-26T21:59:35.462Z,100949
2017-06-26T22:02:04.224Z,100944
2017-06-26T22:04:32.968Z,100945
2017-06-26T22:07:01.524Z,100949
2017-06-26T22:09:30.487Z,100948
2017-06-26T22:11:59.032Z,100955
2017-06-26T22:14:27.800Z,100943
2017-06-26T22:16:56.296Z,100948
2017-06-26T22:19:24.803Z,100933
2017-06-26T22:21:53.286Z,100944
2017-06-26T22:24:21.742Z,100942
2017-06-26T22:26:50.184Z,100949
2017-06-26T22:42:30.633Z,100963
2017-06-26T22:44:59.088Z,100956
2017-06-26T22:47:27.660Z,100953
2017-06-26T22:49:56.250Z,100951
2017-06-26T22:52:24.769Z,100955
2017-06-26T22:54:53.286Z,100952
2017-06-26T22:57:21.993Z,100963
2017-06-26T22:59:50.428Z,100954
2017-06-26T23:02:19.655Z,100949
2017-06-26T23:04:48.266Z,100943
2017-06-26T23:07:17.092Z,100937
2017-06-26T23:09:45.811Z,100940
2017-06-26T23:12:14.248Z,100942
2017-06-26T23:14:42.706Z,100942
2017-06-26T23:17:11.183Z,100951
2017-06-26T23:19:39.776Z,100948
2017-06-26T23:22:08.469Z,100933
2017-06-26T23:24:37.017Z,100942
2017-06-26T23:27:05.480Z,100946
2017-06-26T23:29:33.985Z,100953
2017-06-26T23:32:02.487Z,100943
2017-06-26T23:34:31.349Z,100948
2017-06-26T23:36:59.901Z,100944
2017-06-26T23:39:28.357Z,100936
2017-06-26T23:41:56.840Z,100932
2017-06-26T23:44:25.411Z,100933
2017-06-26T23:46:53.892Z,100927
2017-06-26T23:49:23.040Z,100928
2017-06-26T23:51:53.285Z,100923
2017-06-26T23:54:21.767Z,100929
2017-06-26T23:56:50.576Z,100931
2017-06-26T23:59:19.053Z,100925
